ESSB

Stockholm-Bromma Airport

Stockholm, Sweden
METAR ESSB 181420Z 17011KT 140V210 CAVOK 21/12 Q1012
Observed Flight Rules
Aug-18 @ 14:20 UTC (33 minutes ago) Visual Flight Rules
Wind Visibility Clouds
170° at 11 knots 10,000+ meters
  • Clear skies
Temperatures Readings
Current 21°C / 70°F
Dewpoint 12°C / 54°F
Humidity 57%
Altimeter 29.88" Hg
Pressure 1012 hPa
Elevation 11
METAR ESSB 181420Z 17011KT 140V210 CAVOK 21/12 Q1012
Observed Flight Rules
Aug-18 @ 14:20 UTC
(33 minutes ago)
VFR
Wind Visibility
170° at 11 knots 10,000+ meters
Clouds
  • Clear skies
Temperature Dewpoint
21°C / 70°F 12°C / 54°F
Humidity Altimeter Pressure
57% 29.88" Hg 1012 hPa